Hayden, New Mexico
Current Conditions -  °F | °C
As of 10:53 AM on Thursday 30 Oct 2014 (Local Time) from KDHT Reporting Station
Clear Clear  
Wind Chill: 64°   Ceiling: Unl
Heat Index: 64°   Visibility: 10mi
Dew Point: 24°   Wind: 18mph
Humidity: 22%   Direction: 40°NE
Pressure: 30.32"   Gusts: 28mph
Location:  35.8947°N, 103.215°W
Report Text: KDHT 301653Z AUTO 04016G24KT 10SM CLR 18/M04 A3032 RMK AO2 SLP244 T01781044
Loading
Personal Weather Stations






























Interactive Weather Map
Tropical Storm Tracking
New forecast layout! Learn more

10-Day Weather Forecast

Advertisements
Track Severe Weather on mobile